Time;durP1;ratioP1;P1;durP2;ratioP2;P2;SDS_P1;SDS_P2;PMS_P1;PMS_P2;Temp;Humidity;BMP_temperature;BMP_pressure;BME280_temperature;BME280_humidity;BME280_pressure;Samples;Min_cycle;Max_cycle;Signal;HPM_P1;HPM_P2
2021/04/07 00:01:33;;;;;;;2.50;0.75;;;18.50;32.60;;;;;;5081495;28;20024;-67
2021/04/07 00:03:59;;;;;;;2.22;0.63;;;18.50;32.60;;;;;;5076592;28;20384;-68
2021/04/07 00:06:24;;;;;;;2.65;0.80;;;18.50;32.60;;;;;;5079423;28;20111;-68
2021/04/07 00:08:50;;;;;;;2.10;0.75;;;18.50;32.60;;;;;;5077811;28;20050;-68
2021/04/07 00:11:17;;;;;;;2.38;0.70;;;18.50;32.60;;;;;;5077467;28;20032;-68
2021/04/07 00:13:44;;;;;;;2.30;0.90;;;18.50;32.60;;;;;;5078477;28;20024;-68
2021/04/07 00:16:10;;;;;;;2.00;0.80;;;18.50;32.60;;;;;;5076659;28;20490;-68
2021/04/07 00:18:35;;;;;;;3.35;0.82;;;18.50;32.60;;;;;;5076009;28;20223;-67
2021/04/07 00:21:01;;;;;;;1.35;0.52;;;18.50;32.60;;;;;;5075718;28;20044;-68
2021/04/07 00:23:26;;;;;;;2.33;0.80;;;18.50;32.60;;;;;;5076237;28;20055;-67
2021/04/07 00:25:52;;;;;;;3.10;1.10;;;18.50;32.60;;;;;;5075901;28;20384;-68
2021/04/07 00:28:21;;;;;;;3.47;1.10;;;18.50;32.60;;;;;;5075178;28;20499;-68
2021/04/07 00:30:47;;;;;;;2.35;0.88;;;18.50;32.60;;;;;;5075174;28;20032;-68
2021/04/07 00:33:15;;;;;;;2.75;1.05;;;18.50;32.60;;;;;;5075337;28;20379;-68
2021/04/07 00:35:41;;;;;;;3.72;1.10;;;18.50;32.60;;;;;;5075046;28;20078;-68
2021/04/07 00:38:06;;;;;;;3.22;1.08;;;18.50;32.60;;;;;;5074754;28;20089;-67
2021/04/07 00:40:32;;;;;;;2.65;0.98;;;18.50;32.60;;;;;;5073674;28;20029;-68
2021/04/07 00:43:01;;;;;;;3.03;1.10;;;18.50;32.60;;;;;;5075079;28;20029;-68
2021/04/07 00:45:28;;;;;;;3.05;1.15;;;18.50;32.60;;;;;;5075162;28;20070;-68
2021/04/07 00:47:54;;;;;;;2.88;1.00;;;18.50;32.60;;;;;;5074713;28;20418;-68
2021/04/07 00:50:22;;;;;;;3.78;1.30;;;18.50;32.60;;;;;;5074661;28;20567;-68
2021/04/07 00:52:48;;;;;;;2.78;1.00;;;18.50;32.60;;;;;;5074890;28;20040;-68
2021/04/07 00:55:18;;;;;;;3.90;1.38;;;18.50;32.60;;;;;;5074946;28;20033;-68
2021/04/07 00:57:43;;;;;;;3.83;1.20;;;18.50;32.60;;;;;;5074782;28;20021;-68
2021/04/07 01:00:11;;;;;;;3.80;1.27;;;18.40;32.60;;;;;;5074244;28;20111;-68
2021/04/07 01:02:41;;;;;;;7.85;1.63;;;18.40;32.60;;;;;;5074487;28;20060;-68
2021/04/07 01:05:08;;;;;;;3.05;1.20;;;18.40;32.60;;;;;;5074571;28;20031;-68
2021/04/07 01:07:34;;;;;;;2.67;1.23;;;18.40;32.60;;;;;;5073237;28;20115;-68
2021/04/07 01:10:00;;;;;;;4.07;1.40;;;18.40;32.60;;;;;;5074284;28;20031;-68
2021/04/07 01:12:26;;;;;;;5.88;1.75;;;18.40;32.60;;;;;;5074232;28;20060;-68
2021/04/07 01:14:52;;;;;;;5.82;1.75;;;18.40;32.60;;;;;;5074469;28;20032;-68
2021/04/07 01:17:18;;;;;;;2.97;1.40;;;18.40;32.60;;;;;;5074429;28;20104;-67
2021/04/07 01:19:44;;;;;;;4.28;1.58;;;18.40;32.60;;;;;;5073825;28;20384;-68
2021/04/07 01:22:10;;;;;;;3.70;1.52;;;18.40;32.70;;;;;;5073799;28;20040;-68
2021/04/07 01:24:37;;;;;;;3.85;1.40;;;18.40;32.70;;;;;;5074149;28;20043;-68
2021/04/07 01:27:03;;;;;;;4.70;1.80;;;18.40;32.70;;;;;;5074574;28;20028;-68
2021/04/07 01:29:28;;;;;;;3.75;1.48;;;18.40;32.70;;;;;;5074139;28;20107;-68
2021/04/07 01:31:56;;;;;;;4.05;1.48;;;18.30;32.60;;;;;;5073718;28;20040;-68
2021/04/07 01:34:30;;;;;;;4.63;1.60;;;18.40;32.60;;;;;;5073948;28;20025;-67
2021/04/07 01:36:57;;;;;;;4.43;1.70;;;18.40;32.60;;;;;;5073942;28;20088;-68
2021/04/07 01:39:26;;;;;;;3.67;1.50;;;18.30;32.70;;;;;;5073806;28;20501;-68
2021/04/07 01:41:51;;;;;;;3.88;1.48;;;18.40;32.60;;;;;;5073850;28;20092;-69
2021/04/07 01:44:19;;;;;;;5.65;1.77;;;18.30;32.60;;;;;;5074117;28;20025;-68
2021/04/07 01:46:45;;;;;;;5.15;1.55;;;18.40;32.60;;;;;;5073926;28;20055;-68
2021/04/07 01:49:13;;;;;;;5.15;1.60;;;18.30;32.70;;;;;;5073959;28;20481;-68
2021/04/07 01:51:39;;;;;;;4.82;1.83;;;18.30;32.60;;;;;;5073457;28;20459;-68
2021/04/07 01:54:08;;;;;;;5.47;2.10;;;18.30;32.60;;;;;;5073841;28;20100;-68
2021/04/07 01:56:45;;;;;;;5.32;1.83;;;18.30;32.70;;;;;;5072654;28;20107;-68
2021/04/07 01:59:11;;;;;;;6.07;1.67;;;18.30;32.60;;;;;;5073291;28;20021;-68
2021/04/07 02:01:37;;;;;;;4.95;1.55;;;18.30;32.70;;;;;;5073363;28;20480;-68
2021/04/07 02:04:03;;;;;;;5.32;1.80;;;18.30;32.70;;;;;;5073459;28;20031;-68
2021/04/07 02:06:29;;;;;;;4.97;1.58;;;18.30;32.70;;;;;;5073219;28;20434;-68
2021/04/07 02:08:55;;;;;;;3.70;1.30;;;18.30;32.70;;;;;;5073683;28;20472;-68
2021/04/07 02:11:21;;;;;;;4.57;1.77;;;18.30;32.70;;;;;;5073621;28;20494;-68
2021/04/07 02:13:48;;;;;;;3.75;1.30;;;18.30;32.70;;;;;;5073492;28;20029;-68
2021/04/07 02:16:14;;;;;;;6.63;2.00;;;18.30;32.70;;;;;;5073527;28;20021;-68
2021/04/07 02:18:41;;;;;;;4.30;1.40;;;18.30;32.70;;;;;;5073303;28;20024;-68
2021/04/07 02:21:08;;;;;;;5.20;2.17;;;18.30;32.60;;;;;;5073216;28;20072;-68
2021/04/07 02:23:37;;;;;;;5.80;1.88;;;18.30;32.70;;;;;;5073278;28;20566;-68
2021/04/07 02:26:04;;;;;;;4.53;1.60;;;18.30;32.70;;;;;;5074661;28;20443;-68
2021/04/07 02:28:30;;;;;;;5.78;1.55;;;18.30;32.70;;;;;;5075446;28;20135;-67
2021/04/07 02:30:55;;;;;;;4.40;1.70;;;18.20;32.70;;;;;;5073906;28;20090;-68
2021/04/07 02:33:21;;;;;;;4.53;1.80;;;18.20;32.70;;;;;;5073586;28;20025;-68
2021/04/07 02:35:47;;;;;;;4.30;1.42;;;18.20;32.70;;;;;;5074037;28;20021;-68
2021/04/07 02:38:13;;;;;;;4.03;1.45;;;18.30;32.70;;;;;;5073377;28;20020;-68
2021/04/07 02:40:38;;;;;;;4.43;1.58;;;18.20;32.70;;;;;;5077017;28;20082;-68
2021/04/07 02:43:04;;;;;;;2.65;1.02;;;18.20;32.70;;;;;;5078482;28;20089;-69
2021/04/07 02:45:30;;;;;;;3.10;1.30;;;18.20;32.70;;;;;;5075692;28;20123;-68
2021/04/07 02:47:56;;;;;;;4.43;1.55;;;18.20;32.70;;;;;;5073269;28;20494;-68
2021/04/07 02:50:21;;;;;;;4.07;1.50;;;18.20;32.70;;;;;;5073083;28;20033;-68
2021/04/07 02:52:47;;;;;;;4.45;1.52;;;18.20;32.70;;;;;;5073302;28;20533;-68
2021/04/07 02:55:13;;;;;;;4.90;1.40;;;18.20;32.70;;;;;;5073405;28;20532;-68
2021/04/07 02:57:39;;;;;;;6.68;1.73;;;18.20;32.70;;;;;;5073507;28;20040;-68
2021/04/07 03:00:06;;;;;;;3.70;1.40;;;18.20;32.70;;;;;;5073677;28;20396;-68
2021/04/07 03:02:32;;;;;;;4.45;1.60;;;18.20;32.70;;;;;;5073451;28;20051;-68
2021/04/07 03:04:58;;;;;;;5.35;1.33;;;18.20;32.70;;;;;;5072965;28;20020;-68
2021/04/07 03:07:23;;;;;;;6.35;1.77;;;18.20;32.70;;;;;;5073339;28;20035;-68
2021/04/07 03:09:49;;;;;;;4.63;1.58;;;18.20;32.70;;;;;;5072972;28;20395;-68
2021/04/07 03:12:15;;;;;;;4.00;1.50;;;18.20;32.70;;;;;;5073079;28;20506;-67
2021/04/07 03:14:40;;;;;;;3.42;1.30;;;18.10;32.70;;;;;;5072959;28;20033;-68
2021/04/07 03:17:06;;;;;;;3.67;1.45;;;18.20;32.70;;;;;;5073038;28;20037;-68
2021/04/07 03:19:31;;;;;;;5.55;1.92;;;18.20;32.70;;;;;;5073223;28;20461;-68
2021/04/07 03:21:57;;;;;;;3.85;1.30;;;18.10;32.70;;;;;;5072576;28;20053;-68
2021/04/07 03:24:23;;;;;;;2.55;1.17;;;18.20;32.70;;;;;;5073446;28;20461;-68
2021/04/07 03:26:48;;;;;;;4.90;1.55;;;18.10;32.70;;;;;;5077423;28;20033;-68
2021/04/07 03:29:14;;;;;;;4.15;1.48;;;18.20;32.70;;;;;;5073157;28;20293;-68
2021/04/07 03:31:39;;;;;;;5.07;1.50;;;18.20;32.70;;;;;;5074960;28;20120;-68
2021/04/07 03:34:05;;;;;;;3.50;1.60;;;18.20;32.70;;;;;;5076804;28;20066;-68
2021/04/07 03:36:30;;;;;;;3.95;1.48;;;18.10;32.70;;;;;;5075844;28;20029;-68
2021/04/07 03:38:56;;;;;;;3.65;1.52;;;18.10;32.70;;;;;;5075957;28;20029;-68
2021/04/07 03:41:21;;;;;;;5.55;1.50;;;18.10;32.80;;;;;;5076455;28;20069;-68
2021/04/07 03:43:47;;;;;;;4.88;1.67;;;18.10;32.70;;;;;;5076237;28;20027;-68
2021/04/07 03:46:15;;;;;;;3.92;1.27;;;18.10;32.70;;;;;;5076286;28;20036;-68
2021/04/07 03:48:41;;;;;;;3.55;1.35;;;18.10;32.80;;;;;;5076032;28;20067;-68
2021/04/07 03:51:06;;;;;;;3.55;1.23;;;18.10;32.70;;;;;;5075856;28;20056;-68
2021/04/07 03:53:32;;;;;;;4.80;1.55;;;18.10;32.70;;;;;;5075025;28;20082;-68
2021/04/07 03:55:57;;;;;;;4.93;1.58;;;18.10;32.80;;;;;;5076243;28;20024;-68
2021/04/07 03:58:24;;;;;;;3.50;1.17;;;18.10;32.80;;;;;;5075657;28;20074;-68
2021/04/07 04:00:50;;;;;;;4.07;1.27;;;18.10;32.80;;;;;;5075989;28;20098;-68
2021/04/07 04:03:16;;;;;;;4.78;1.58;;;18.10;32.80;;;;;;5075909;28;20028;-68
2021/04/07 04:05:42;;;;;;;3.20;1.23;;;18.10;32.70;;;;;;5076205;28;20035;-68
2021/04/07 04:08:08;;;;;;;4.05;1.23;;;18.10;32.80;;;;;;5074648;28;20051;-68
2021/04/07 04:10:34;;;;;;;3.42;1.20;;;18.10;32.80;;;;;;5075864;28;20466;-68
2021/04/07 04:13:00;;;;;;;2.88;1.17;;;18.10;32.80;;;;;;5075921;28;20025;-68
2021/04/07 04:15:26;;;;;;;2.60;1.00;;;18.10;32.70;;;;;;5075758;28;20033;-68
2021/04/07 04:17:52;;;;;;;3.63;1.50;;;18.10;32.70;;;;;;5075494;28;20024;-68
2021/04/07 04:20:19;;;;;;;4.35;1.30;;;18.20;32.60;;;;;;5074892;28;20024;-68
2021/04/07 04:22:45;;;;;;;3.80;1.33;;;18.20;32.60;;;;;;5075727;28;20135;-68
2021/04/07 04:25:14;;;;;;;3.28;1.30;;;18.30;32.60;;;;;;5075525;28;20043;-68
2021/04/07 04:27:41;;;;;;;4.00;1.30;;;18.30;32.50;;;;;;5074149;28;20379;-68
2021/04/07 04:30:10;;;;;;;4.07;1.42;;;18.30;32.50;;;;;;5075734;28;20036;-66
2021/04/07 04:32:35;;;;;;;4.28;1.20;;;18.30;32.50;;;;;;5075259;28;20392;-67
2021/04/07 04:35:01;;;;;;;4.60;1.45;;;18.30;32.50;;;;;;5075899;28;20017;-68
2021/04/07 04:37:26;;;;;;;3.55;1.38;;;18.40;32.40;;;;;;5076120;28;20031;-68
2021/04/07 04:39:52;;;;;;;3.88;1.15;;;18.40;32.40;;;;;;5075481;28;20480;-67
2021/04/07 04:42:18;;;;;;;4.47;1.45;;;18.40;32.40;;;;;;5077730;28;20376;-68
2021/04/07 04:44:43;;;;;;;2.78;1.05;;;18.40;32.40;;;;;;5076490;28;20047;-67
2021/04/07 04:47:09;;;;;;;3.58;1.25;;;18.40;32.40;;;;;;5074962;28;20024;-67
2021/04/07 04:49:34;;;;;;;4.30;1.30;;;18.50;32.40;;;;;;5074963;28;20032;-68
2021/04/07 04:52:00;;;;;;;3.70;1.42;;;18.50;32.40;;;;;;5075076;28;20060;-68
2021/04/07 04:54:25;;;;;;;3.15;1.08;;;18.50;32.40;;;;;;5074843;28;20063;-68
2021/04/07 04:56:51;;;;;;;4.15;1.55;;;18.50;32.40;;;;;;5075047;28;20064;-68
2021/04/07 04:59:17;;;;;;;2.83;1.08;;;18.50;32.40;;;;;;5074333;28;20056;-67
2021/04/07 05:01:42;;;;;;;6.80;1.10;;;18.50;32.40;;;;;;5074426;28;20025;-68
2021/04/07 05:04:08;;;;;;;2.92;1.17;;;18.50;32.30;;;;;;5074335;28;20031;-67
2021/04/07 05:06:34;;;;;;;4.50;1.35;;;18.50;32.30;;;;;;5075193;28;20025;-68
2021/04/07 05:09:04;;;;;;;4.20;1.40;;;18.60;32.40;;;;;;5074534;28;20101;-68
2021/04/07 05:11:32;;;;;;;4.07;1.23;;;18.60;32.30;;;;;;5074323;28;20457;-68
2021/04/07 05:14:01;;;;;;;4.20;1.17;;;18.60;32.30;;;;;;5074164;28;20032;-68
2021/04/07 05:16:27;;;;;;;2.67;1.05;;;18.60;32.30;;;;;;5074534;28;20486;-68
2021/04/07 05:18:53;;;;;;;3.95;1.40;;;18.60;32.30;;;;;;5074909;28;20070;-67
2021/04/07 05:21:19;;;;;;;4.15;1.30;;;18.60;32.30;;;;;;5074325;28;20276;-68
2021/04/07 05:23:44;;;;;;;2.28;0.80;;;18.70;32.40;;;;;;5074124;28;20384;-68
2021/04/07 05:26:10;;;;;;;5.28;1.20;;;18.60;32.40;;;;;;5074030;28;20033;-68
2021/04/07 05:28:36;;;;;;;3.17;1.05;;;18.70;32.40;;;;;;5075892;28;20461;-68
2021/04/07 05:31:02;;;;;;;3.63;1.30;;;18.70;32.30;;;;;;5085316;28;20037;-68
2021/04/07 05:33:34;;;;;;;3.65;1.15;;;18.70;32.30;;;;;;5084624;28;20107;-68
2021/04/07 05:36:02;;;;;;;5.07;1.27;;;18.70;32.40;;;;;;5082770;28;20438;-68
2021/04/07 05:38:27;;;;;;;3.15;1.17;;;18.70;32.40;;;;;;5074737;28;20033;-68
2021/04/07 05:40:55;;;;;;;3.58;1.13;;;18.70;32.30;;;;;;5074413;28;20116;-69
2021/04/07 05:43:21;;;;;;;3.47;1.48;;;18.80;32.30;;;;;;5074249;28;20033;-68
2021/04/07 05:45:47;;;;;;;2.58;1.05;;;18.80;32.30;;;;;;5073610;28;20158;-68
2021/04/07 05:48:12;;;;;;;3.50;1.10;;;18.80;32.40;;;;;;5073975;28;20495;-67
2021/04/07 05:50:47;;;;;;;3.17;1.10;;;18.80;32.30;;;;;;5074232;28;20025;-67
2021/04/07 05:53:13;;;;;;;3.72;1.20;;;18.80;32.40;;;;;;5073995;28;20230;-68
2021/04/07 05:55:43;;;;;;;3.92;1.30;;;18.70;32.30;;;;;;5073551;28;20027;-67
2021/04/07 05:58:10;;;;;;;4.00;1.35;;;18.80;32.40;;;;;;5073966;28;20029;-68
2021/04/07 06:00:36;;;;;;;2.33;1.05;;;18.80;32.30;;;;;;5073809;28;20028;-68
2021/04/07 06:03:04;;;;;;;3.50;1.13;;;18.80;32.40;;;;;;5074415;28;20024;-68
2021/04/07 06:05:30;;;;;;;3.13;1.20;;;18.80;32.30;;;;;;5073349;28;20024;-68
2021/04/07 06:07:56;;;;;;;3.17;1.23;;;18.90;32.40;;;;;;5073347;28;20043;-68
2021/04/07 06:10:22;;;;;;;3.88;1.40;;;18.80;32.40;;;;;;5073281;28;20024;-68
2021/04/07 06:12:48;;;;;;;2.88;1.05;;;18.80;32.30;;;;;;5074231;28;20464;-68
2021/04/07 06:15:14;;;;;;;3.88;1.27;;;18.90;32.30;;;;;;5074656;28;20020;-68
2021/04/07 06:17:52;;;;;;;2.90;1.20;;;18.90;32.30;;;;;;5073796;28;20025;-67
2021/04/07 06:20:17;;;;;;;3.15;1.05;;;18.90;32.40;;;;;;5073537;28;20074;-68
2021/04/07 06:22:43;;;;;;;2.47;1.10;;;18.80;32.40;;;;;;5073818;28;20028;-67
2021/04/07 06:25:09;;;;;;;3.75;1.65;;;18.90;32.40;;;;;;5073266;28;20024;-66
2021/04/07 06:27:34;;;;;;;1.63;0.90;;;18.90;32.40;;;;;;5073570;28;20028;-68
2021/04/07 06:30:00;;;;;;;2.38;1.15;;;18.90;32.40;;;;;;5073657;28;20487;-70
2021/04/07 06:32:29;;;;;;;3.63;1.13;;;18.90;32.40;;;;;;5072566;28;20032;-69
2021/04/07 06:34:55;;;;;;;2.90;1.15;;;18.90;32.60;;;;;;5072136;28;20028;-68
2021/04/07 06:37:21;;;;;;;3.22;1.27;;;18.90;32.70;;;;;;5073002;28;20021;-70
2021/04/07 06:39:47;;;;;;;3.45;1.00;;;18.90;32.60;;;;;;5071789;28;20078;-71
2021/04/07 06:42:14;;;;;;;4.10;1.15;;;18.90;32.70;;;;;;5073577;28;20025;-69
2021/04/07 06:44:39;;;;;;;2.83;1.10;;;19.00;32.60;;;;;;5072803;28;20329;-68
2021/04/07 06:47:05;;;;;;;4.00;1.63;;;18.90;32.70;;;;;;5084759;28;20416;-70
2021/04/07 06:49:33;;;;;;;4.07;1.40;;;18.90;32.70;;;;;;5074428;28;20028;-68
2021/04/07 06:52:02;;;;;;;4.05;1.27;;;19.00;32.70;;;;;;5073804;28;20033;-69
2021/04/07 06:54:28;;;;;;;2.67;1.20;;;19.00;32.70;;;;;;5082756;28;20032;-68
2021/04/07 06:56:55;;;;;;;2.70;1.13;;;19.00;32.70;;;;;;5079115;28;20023;-69
2021/04/07 06:59:21;;;;;;;3.38;1.08;;;19.00;32.70;;;;;;5071433;28;20021;-69
2021/04/07 07:01:46;;;;;;;3.75;1.10;;;19.00;32.70;;;;;;5073143;28;20455;-70
2021/04/07 07:04:12;;;;;;;3.05;1.10;;;19.00;32.70;;;;;;5072142;28;20032;-68
2021/04/07 07:06:38;;;;;;;2.63;1.17;;;19.00;32.70;;;;;;5073400;28;20120;-72
2021/04/07 07:09:17;;;;;;;2.63;1.15;;;19.00;32.70;;;;;;5070394;28;20115;-70
2021/04/07 07:11:47;;;;;;;3.10;1.20;;;19.00;32.70;;;;;;5074903;28;20040;-69
2021/04/07 07:14:17;;;;;;;2.63;1.00;;;19.00;32.70;;;;;;5055962;28;20074;-69
2021/04/07 07:16:44;;;;;;;3.85;1.30;;;19.00;32.70;;;;;;5071215;28;20503;-69
2021/04/07 07:19:23;;;;;;;4.10;1.00;;;19.10;32.70;;;;;;5075394;28;20056;-70
2021/04/07 07:21:53;;;;;;;2.42;1.00;;;19.00;32.70;;;;;;5075800;28;20056;-69
2021/04/07 07:24:35;;;;;;;2.38;1.05;;;19.10;32.60;;;;;;5076138;28;20035;-69
2021/04/07 07:27:03;;;;;;;3.00;1.20;;;19.10;32.70;;;;;;5075252;28;20028;-70
2021/04/07 07:29:34;;;;;;;2.60;1.00;;;19.10;32.70;;;;;;5075754;28;20020;-70
2021/04/07 07:32:07;;;;;;;3.28;1.20;;;19.10;32.70;;;;;;5075601;28;20104;-73
2021/04/07 07:34:34;;;;;;;5.10;1.25;;;19.10;32.70;;;;;;5075321;28;20093;-71
2021/04/07 07:37:02;;;;;;;2.25;1.00;;;19.10;32.70;;;;;;5075443;28;20417;-70
2021/04/07 07:39:31;;;;;;;3.92;1.27;;;19.10;32.70;;;;;;5074818;28;20154;-71
2021/04/07 07:42:02;;;;;;;2.72;1.27;;;19.10;32.70;;;;;;5075594;28;20037;-68
2021/04/07 07:44:30;;;;;;;3.13;1.02;;;19.10;32.70;;;;;;5075939;28;20029;-69
2021/04/07 07:47:19;;;;;;;2.78;1.00;;;19.20;32.60;;;;;;5075375;28;20357;-69
2021/04/07 07:50:06;;;;;;;2.58;1.20;;;19.20;32.70;;;;;;5074711;28;20029;-69
2021/04/07 07:52:37;;;;;;;3.45;1.20;;;19.20;32.70;;;;;;5075309;28;20099;-70
2021/04/07 07:55:17;;;;;;;3.42;1.40;;;19.20;32.70;;;;;;5075937;28;20082;-69
2021/04/07 07:57:56;;;;;;;2.80;1.23;;;19.20;32.70;;;;;;5075574;28;20025;-69
2021/04/07 08:00:23;;;;;;;3.67;1.23;;;19.20;32.70;;;;;;5074307;28;20031;-70
2021/04/07 08:02:50;;;;;;;2.65;1.27;;;19.20;32.70;;;;;;5074661;28;20028;-69
2021/04/07 08:05:20;;;;;;;4.40;1.10;;;19.20;32.70;;;;;;5074947;28;20035;-70
2021/04/07 08:07:47;;;;;;;5.30;1.25;;;19.20;32.70;;;;;;5075054;28;20495;-71
2021/04/07 08:10:14;;;;;;;3.17;1.00;;;19.20;32.70;;;;;;5073811;28;20055;-70
2021/04/07 08:12:41;;;;;;;3.92;1.05;;;19.20;32.70;;;;;;5074630;28;20059;-72
2021/04/07 08:15:08;;;;;;;2.80;1.27;;;19.20;32.70;;;;;;5074973;28;20024;-68
2021/04/07 08:17:35;;;;;;;3.03;1.10;;;19.20;32.70;;;;;;5074111;28;20510;-68
2021/04/07 08:20:01;;;;;;;2.13;1.10;;;19.20;32.70;;;;;;5074095;28;20016;-70
2021/04/07 08:22:29;;;;;;;2.65;0.90;;;19.20;32.70;;;;;;5074713;28;20064;-69
2021/04/07 08:24:58;;;;;;;1.80;0.82;;;19.30;32.70;;;;;;5074786;28;20382;-67
2021/04/07 08:27:25;;;;;;;2.40;1.00;;;19.30;32.70;;;;;;5074783;28;20027;-68
2021/04/07 08:29:51;;;;;;;3.25;1.30;;;19.30;32.70;;;;;;5076230;28;20129;-68
2021/04/07 08:32:21;;;;;;;3.25;1.10;;;19.30;32.70;;;;;;5078431;28;20028;-69
2021/04/07 08:34:48;;;;;;;2.85;0.98;;;19.30;32.70;;;;;;5074700;28;20545;-69
2021/04/07 08:37:23;;;;;;;2.17;0.90;;;19.30;32.70;;;;;;5074281;28;20029;-69
2021/04/07 08:39:49;;;;;;;3.75;1.33;;;19.30;32.80;;;;;;5074141;28;20095;-69
2021/04/07 08:42:15;;;;;;;2.38;0.98;;;19.30;32.70;;;;;;5074062;28;20112;-69
2021/04/07 08:44:44;;;;;;;2.00;1.00;;;19.30;32.70;;;;;;5074265;28;20460;-69
2021/04/07 08:47:42;;;;;;;2.25;0.98;;;19.30;32.70;;;;;;5073988;28;20056;-67
2021/04/07 08:50:08;;;;;;;2.05;0.95;;;19.30;32.80;;;;;;5073834;28;20119;-69
2021/04/07 08:52:47;;;;;;;2.35;0.90;;;19.30;32.80;;;;;;5073615;28;20381;-68
2021/04/07 08:55:24;;;;;;;1.80;0.90;;;19.30;32.70;;;;;;5073912;28;20032;-70
2021/04/07 08:58:03;;;;;;;2.33;1.00;;;19.30;32.70;;;;;;5074050;28;20040;-70
2021/04/07 09:00:32;;;;;;;2.70;0.95;;;19.40;32.70;;;;;;5074410;28;20016;-70
2021/04/07 09:03:14;;;;;;;4.20;1.10;;;19.30;32.80;;;;;;5073318;28;20025;-71
2021/04/07 09:05:46;;;;;;;2.53;0.90;;;19.40;32.80;;;;;;5073936;28;20495;-69
2021/04/07 09:08:16;;;;;;;2.20;1.00;;;19.40;32.80;;;;;;5074033;28;20027;-70
2021/04/07 09:10:45;;;;;;;1.73;0.98;;;19.40;32.70;;;;;;5073334;28;20059;-70
2021/04/07 09:13:13;;;;;;;2.40;1.00;;;19.40;32.70;;;;;;5072739;28;20037;-72
2021/04/07 09:15:53;;;;;;;3.00;0.93;;;19.50;32.70;;;;;;5073652;28;20025;-72
2021/04/07 09:18:41;;;;;;;2.90;1.17;;;19.40;32.70;;;;;;5073567;28;20098;-69
2021/04/07 09:21:27;;;;;;;3.15;1.20;;;19.40;32.80;;;;;;5073396;28;20051;-69
2021/04/07 09:23:56;;;;;;;3.60;1.27;;;19.40;32.80;;;;;;5072192;28;20117;-69
2021/04/07 09:26:25;;;;;;;2.28;0.90;;;19.40;32.80;;;;;;5073340;28;20380;-71
2021/04/07 09:28:53;;;;;;;3.25;1.20;;;19.50;32.80;;;;;;5072488;28;20024;-70
2021/04/07 09:31:35;;;;;;;2.17;0.90;;;19.40;32.80;;;;;;5070095;28;20056;-71
2021/04/07 09:34:01;;;;;;;1.67;0.80;;;19.50;32.80;;;;;;5072520;28;20111;-70
2021/04/07 09:36:32;;;;;;;2.80;0.90;;;19.50;32.80;;;;;;5072804;28;20115;-69
2021/04/07 09:38:59;;;;;;;1.90;0.70;;;19.40;32.80;;;;;;5072732;28;20029;-70
2021/04/07 09:41:29;;;;;;;2.70;1.08;;;19.50;32.80;;;;;;5073133;28;20066;-70
2021/04/07 09:43:57;;;;;;;2.08;0.85;;;19.50;32.80;;;;;;5072354;28;20146;-70
2021/04/07 09:46:23;;;;;;;1.92;0.80;;;19.50;32.80;;;;;;5072849;28;20354;-69
2021/04/07 09:48:57;;;;;;;2.30;1.00;;;19.50;32.80;;;;;;5072912;28;20198;-69
2021/04/07 09:51:22;;;;;;;2.85;1.10;;;19.50;32.80;;;;;;5072697;28;20059;-69
2021/04/07 09:53:49;;;;;;;2.75;1.00;;;19.50;32.80;;;;;;5073192;28;20373;-69
2021/04/07 09:56:14;;;;;;;1.95;0.90;;;19.50;32.90;;;;;;5073150;28;20380;-70
2021/04/07 09:58:45;;;;;;;2.38;1.10;;;19.50;32.80;;;;;;5073353;28;20020;-73
2021/04/07 10:01:13;;;;;;;2.22;1.00;;;19.50;32.80;;;;;;5072919;28;20107;-68
2021/04/07 10:03:49;;;;;;;3.08;1.10;;;19.50;32.90;;;;;;5072702;28;20024;-67
2021/04/07 10:06:25;;;;;;;2.92;1.20;;;19.50;32.80;;;;;;5072372;28;20028;-69
2021/04/07 10:09:01;;;;;;;1.73;0.85;;;19.50;32.90;;;;;;5072887;28;20069;-68
2021/04/07 10:11:27;;;;;;;2.70;0.98;;;19.50;32.90;;;;;;5072884;28;20035;-69
2021/04/07 10:13:58;;;;;;;1.80;0.90;;;19.50;32.90;;;;;;5072539;28;20373;-72
2021/04/07 10:16:25;;;;;;;2.38;1.02;;;19.50;32.90;;;;;;5072046;28;20056;-72
2021/04/07 10:18:51;;;;;;;2.58;1.20;;;19.50;32.90;;;;;;5072328;28;20396;-72
2021/04/07 10:21:19;;;;;;;3.35;1.27;;;19.50;32.90;;;;;;5072335;28;20084;-72
2021/04/07 10:23:48;;;;;;;2.90;1.05;;;19.50;32.90;;;;;;5073299;28;20369;-70
2021/04/07 10:26:16;;;;;;;1.30;0.80;;;19.50;33.00;;;;;;5072416;28;20040;-70
2021/04/07 10:28:52;;;;;;;2.45;0.90;;;19.50;33.00;;;;;;5072140;28;20032;-70
2021/04/07 10:31:18;;;;;;;3.38;1.23;;;19.50;33.00;;;;;;5072082;28;20039;-70
2021/04/07 10:33:43;;;;;;;2.85;1.02;;;19.50;32.90;;;;;;5076788;28;20032;-69
2021/04/07 10:36:09;;;;;;;2.30;1.02;;;19.50;33.00;;;;;;5071786;28;20082;-69
2021/04/07 10:38:35;;;;;;;2.30;1.08;;;19.50;32.90;;;;;;5072595;28;20476;-69
2021/04/07 10:41:03;;;;;;;1.65;0.85;;;19.60;32.90;;;;;;5077980;28;20184;-73
2021/04/07 10:43:32;;;;;;;2.70;0.95;;;19.60;33.00;;;;;;5096789;28;20020;-70
2021/04/07 10:46:02;;;;;;;2.65;1.15;;;19.60;33.00;;;;;;5095622;28;20017;-69
2021/04/07 10:48:28;;;;;;;2.58;1.00;;;19.60;33.00;;;;;;5096312;28;20032;-69
2021/04/07 10:50:54;;;;;;;2.58;1.20;;;19.60;33.00;;;;;;5096224;28;20020;-69
2021/04/07 10:53:38;;;;;;;2.20;1.08;;;19.70;32.90;;;;;;5096755;28;20020;-70
2021/04/07 10:56:18;;;;;;;3.75;1.00;;;19.70;32.80;;;;;;5096906;28;20066;-69
2021/04/07 10:58:44;;;;;;;3.00;1.20;;;19.70;32.80;;;;;;5095711;28;20392;-68
2021/04/07 11:01:10;;;;;;;2.13;1.10;;;19.70;32.80;;;;;;5100348;28;20024;-69
2021/04/07 11:03:36;;;;;;;1.70;0.93;;;19.70;32.80;;;;;;5099365;28;20028;-71
2021/04/07 11:06:02;;;;;;;2.60;0.70;;;19.70;32.90;;;;;;5097025;28;20444;-68
2021/04/07 11:08:39;;;;;;;2.33;1.10;;;19.70;32.90;;;;;;5096260;28;20111;-71
2021/04/07 11:11:07;;;;;;;1.63;0.88;;;19.70;33.00;;;;;;5096458;28;20064;-70
2021/04/07 11:13:34;;;;;;;1.88;0.75;;;19.70;33.10;;;;;;5096443;28;20077;-67
2021/04/07 11:16:09;;;;;;;2.95;0.90;;;19.70;33.10;;;;;;5085290;28;20032;-68
2021/04/07 11:18:37;;;;;;;3.17;1.00;;;19.60;33.10;;;;;;5078698;28;20490;-69
2021/04/07 11:21:03;;;;;;;3.17;0.90;;;19.70;33.10;;;;;;5094379;28;20511;-69
2021/04/07 11:23:28;;;;;;;3.35;1.20;;;19.60;33.20;;;;;;5095935;28;20020;-69
2021/04/07 11:25:54;;;;;;;2.28;0.93;;;19.60;33.20;;;;;;5096136;28;20031;-70
2021/04/07 11:28:21;;;;;;;2.85;1.10;;;19.60;33.10;;;;;;5095347;28;20460;-68
2021/04/07 11:31:34;;;;;;;2.05;0.93;;;19.70;33.20;;;;;;5095209;28;20043;-70
2021/04/07 11:33:53;;;;;;;2.20;1.02;;;19.70;33.10;;;;;;5088109;28;20051;-71
2021/04/07 11:36:26;;;;;;;;;;;19.70;33.00;;;;;;5095009;28;20047;-71
2021/04/07 11:38:56;;;;;;;2.38;0.88;;;19.70;32.90;;;;;;5095163;28;20430;-69
2021/04/07 11:44:28;;;;;;;1.60;0.77;;;19.90;32.80;;;;;;5053075;28;20123;-68
2021/04/07 11:46:55;;;;;;;2.03;0.82;;;19.80;32.90;;;;;;5053101;28;20271;-68
2021/04/07 11:49:21;;;;;;;2.53;1.02;;;19.80;33.00;;;;;;5073115;28;20036;-68
2021/04/07 11:51:47;;;;;;;3.38;1.10;;;19.80;33.10;;;;;;5094594;28;20036;-68
2021/04/07 11:54:14;;;;;;;2.20;0.88;;;19.80;33.10;;;;;;5095592;28;20027;-68
2021/04/07 11:56:44;;;;;;;4.20;1.15;;;19.70;33.10;;;;;;5095750;28;20020;-68
2021/04/07 11:59:11;;;;;;;2.50;0.80;;;19.70;33.20;;;;;;5095488;28;20031;-67
2021/04/07 12:01:37;;;;;;;2.65;1.10;;;19.70;33.20;;;;;;5094537;28;20039;-69
2021/04/07 12:04:03;;;;;;;1.83;0.80;;;19.60;33.20;;;;;;5095396;28;20024;-68
2021/04/07 12:06:29;;;;;;;3.22;1.10;;;19.70;33.10;;;;;;5095255;28;20024;-69
2021/04/07 12:08:54;;;;;;;2.78;1.00;;;19.90;32.90;;;;;;5097923;28;20016;-68
2021/04/07 12:11:20;;;;;;;5.32;1.02;;;20.00;32.70;;;;;;5094541;28;20050;-69
2021/04/07 12:13:46;;;;;;;3.13;1.10;;;20.10;32.60;;;;;;5095409;28;20031;-69
2021/04/07 12:16:11;;;;;;;3.05;1.10;;;20.00;32.70;;;;;;5095761;28;20020;-70
2021/04/07 12:18:37;;;;;;;1.98;0.90;;;20.00;32.80;;;;;;5094567;28;20081;-70
2021/04/07 12:21:03;;;;;;;3.63;1.20;;;20.00;32.90;;;;;;5099135;28;20462;-70
2021/04/07 12:23:28;;;;;;;1.75;0.88;;;19.90;33.00;;;;;;5094312;28;20052;-70
2021/04/07 12:25:54;;;;;;;3.65;1.17;;;19.90;33.00;;;;;;5095383;28;20024;-72
2021/04/07 12:28:21;;;;;;;2.90;1.10;;;19.90;33.00;;;;;;5094968;28;20031;-74
2021/04/07 12:30:50;;;;;;;2.88;1.15;;;20.00;32.90;;;;;;5094746;28;20024;-75
2021/04/07 12:33:22;;;;;;;3.45;1.05;;;20.00;32.90;;;;;;5094359;28;20165;-75
2021/04/07 12:35:51;;;;;;;2.70;1.00;;;20.00;32.90;;;;;;5094994;28;20027;-73
2021/04/07 12:38:17;;;;;;;2.85;1.00;;;20.00;33.00;;;;;;5094787;28;20020;-75
2021/04/07 12:40:48;;;;;;;3.08;1.00;;;20.00;33.00;;;;;;5094778;28;20020;-72
2021/04/07 12:43:13;;;;;;;3.40;1.00;;;19.90;33.10;;;;;;5094246;28;20035;-72
2021/04/07 12:45:40;;;;;;;3.35;1.30;;;19.90;33.10;;;;;;5099635;28;20020;-73
2021/04/07 12:48:06;;;;;;;6.20;1.42;;;19.90;33.10;;;;;;5096512;28;20054;-72
2021/04/07 12:50:32;;;;;;;2.78;0.90;;;19.80;33.20;;;;;;5094657;28;20050;-73
2021/04/07 12:52:57;;;;;;;4.70;1.25;;;19.90;33.20;;;;;;5093612;28;20529;-69
2021/04/07 12:55:23;;;;;;;3.17;1.08;;;19.90;33.20;;;;;;5094602;28;20048;-72